createdAt,value
2023-01-26T00:01:18.490Z,79.93
2023-01-26T00:03:46.697Z,79.68
2023-01-26T00:06:15.930Z,79.75
2023-01-26T00:08:44.878Z,79.58
2023-01-26T00:11:14.750Z,79.73
2023-01-26T00:13:42.801Z,79.53
2023-01-26T00:16:12.804Z,79.73
2023-01-26T00:18:41.231Z,79.57
2023-01-26T00:21:11.845Z,79.52
2023-01-26T00:23:39.475Z,79.57
2023-01-26T00:26:07.824Z,79.42
2023-01-26T00:28:35.602Z,79.33
2023-01-26T00:31:04.016Z,79.32
2023-01-26T00:33:32.208Z,79.49
2023-01-26T00:36:00.234Z,79.73
2023-01-26T00:38:27.920Z,79.60
2023-01-26T00:40:55.862Z,79.37
2023-01-26T00:43:23.452Z,79.45
2023-01-26T00:45:52.657Z,79.62
2023-01-26T00:48:23.546Z,79.38
2023-01-26T00:50:52.804Z,79.48
2023-01-26T00:53:20.449Z,79.57
2023-01-26T00:55:48.068Z,79.79
2023-01-26T00:58:15.908Z,79.77
2023-01-26T01:04:11.169Z,79.86
2023-01-26T01:18:16.314Z,79.99
2023-01-26T01:21:20.401Z,80.14
2023-01-26T01:23:54.063Z,80.29
2023-01-26T01:26:22.980Z,79.97
2023-01-26T01:28:53.276Z,80.06
2023-01-26T01:31:21.152Z,80.21
2023-01-26T01:33:48.851Z,80.23
2023-01-26T01:36:17.104Z,80.27
2023-01-26T01:38:45.967Z,80.46
2023-01-26T01:41:16.224Z,80.46
2023-01-26T01:43:43.860Z,80.38
2023-01-26T01:46:18.118Z,80.40
2023-01-26T01:48:54.629Z,80.57
2023-01-26T01:51:31.274Z,80.59
2023-01-26T01:54:02.284Z,80.73
2023-01-26T01:56:31.395Z,80.87
2023-01-26T01:59:00.167Z,80.51
2023-01-26T02:01:27.995Z,80.49
2023-01-26T02:04:00.159Z,80.54
2023-01-26T02:06:34.337Z,80.37
2023-01-26T02:09:04.367Z,80.46
2023-01-26T02:11:41.553Z,80.01
2023-01-26T02:14:11.568Z,80.13
2023-01-26T02:16:40.135Z,80.15
2023-01-26T02:19:15.018Z,80.35
2023-01-26T02:21:44.582Z,80.56
2023-01-26T02:24:26.470Z,80.47
2023-01-26T02:26:54.877Z,80.24
2023-01-26T02:29:23.222Z,80.40
2023-01-26T02:31:53.770Z,80.39
2023-01-26T02:34:24.211Z,80.38
2023-01-26T02:36:59.401Z,80.41
2023-01-26T02:39:52.974Z,80.36
2023-01-26T02:42:38.991Z,80.47
2023-01-26T02:45:07.220Z,80.36
2023-01-26T02:47:35.081Z,80.23
2023-01-26T02:50:08.888Z,80.47
2023-01-26T02:52:37.193Z,80.35
2023-01-26T02:55:25.546Z,80.38
2023-01-26T02:58:04.319Z,80.31
2023-01-26T03:00:37.888Z,80.13
2023-01-26T03:03:11.521Z,79.36
2023-01-26T03:05:39.261Z,79.50
2023-01-26T03:08:07.135Z,79.36
2023-01-26T03:10:37.180Z,79.82
2023-01-26T03:13:06.110Z,79.71
2023-01-26T03:15:43.257Z,79.68
2023-01-26T03:18:32.583Z,79.49
2023-01-26T03:21:22.853Z,79.47
2023-01-26T03:24:09.659Z,79.03
2023-01-26T03:26:57.551Z,79.11
2023-01-26T03:29:26.861Z,79.04
2023-01-26T03:31:56.212Z,78.80
2023-01-26T03:34:24.275Z,78.60
2023-01-26T03:36:53.075Z,78.04
2023-01-26T03:39:39.974Z,77.60
2023-01-26T03:42:27.817Z,77.70
2023-01-26T03:45:14.330Z,77.51
2023-01-26T03:48:02.175Z,77.50
2023-01-26T03:50:50.193Z,76.87
2023-01-26T03:53:42.233Z,76.02
2023-01-26T03:56:32.347Z,76.09
2023-01-26T03:59:13.232Z,75.66
2023-01-26T04:01:42.510Z,75.50
2023-01-26T04:04:30.306Z,75.56
2023-01-26T04:07:16.795Z,75.52
2023-01-26T04:09:49.351Z,75.78
2023-01-26T04:12:17.599Z,75.73
2023-01-26T04:15:16.042Z,75.71
2023-01-26T04:18:02.660Z,75.77
2023-01-26T04:20:49.879Z,75.72
2023-01-26T04:23:20.729Z,75.62
2023-01-26T04:25:50.198Z,75.56
2023-01-26T04:28:19.209Z,75.54
2023-01-26T04:30:48.201Z,75.86
2023-01-26T04:33:16.291Z,75.70
2023-01-26T04:35:44.564Z,75.39
2023-01-26T04:38:14.363Z,75.39
2023-01-26T04:40:43.369Z,75.27
2023-01-26T04:43:13.207Z,75.13
2023-01-26T04:45:40.926Z,74.68
2023-01-26T04:48:08.707Z,74.54
2023-01-26T04:50:36.702Z,74.65
2023-01-26T04:53:05.732Z,74.39
2023-01-26T04:55:33.609Z,74.06
2023-01-26T04:58:02.582Z,73.81
2023-01-26T05:00:31.092Z,73.90
2023-01-26T05:02:59.763Z,74.07
2023-01-26T05:05:29.616Z,73.69
2023-01-26T05:07:57.272Z,73.51
2023-01-26T05:10:26.345Z,73.46
2023-01-26T05:13:18.901Z,73.60
2023-01-26T05:16:07.922Z,73.32
2023-01-26T05:18:55.101Z,73.08
2023-01-26T05:21:45.733Z,73.19
2023-01-26T05:24:14.538Z,73.17
2023-01-26T05:27:21.097Z,73.18
2023-01-26T05:30:00.258Z,72.95
2023-01-26T05:32:30.106Z,72.80
2023-01-26T05:34:58.062Z,72.89
2023-01-26T05:37:26.522Z,72.58
2023-01-26T05:39:54.555Z,72.62
2023-01-26T05:42:23.090Z,72.35
2023-01-26T05:45:04.391Z,72.44
2023-01-26T05:47:32.895Z,72.31
2023-01-26T05:50:00.534Z,72.38
2023-01-26T05:52:32.427Z,72.46
2023-01-26T05:55:00.864Z,72.17
2023-01-26T05:57:28.757Z,72.18
2023-01-26T06:00:01.450Z,71.94
2023-01-26T06:02:29.994Z,71.93
2023-01-26T06:04:57.823Z,71.72
2023-01-26T06:07:26.640Z,71.66
2023-01-26T06:10:17.127Z,71.68
2023-01-26T06:13:05.202Z,71.94
2023-01-26T06:15:45.683Z,71.96
2023-01-26T06:18:13.923Z,71.80
2023-01-26T06:20:47.551Z,71.75
2023-01-26T06:23:18.001Z,71.79
2023-01-26T06:25:47.117Z,71.68
2023-01-26T06:28:14.867Z,71.82
2023-01-26T06:30:42.965Z,71.53
2023-01-26T06:33:12.745Z,71.45
2023-01-26T06:35:40.643Z,71.38
2023-01-26T06:38:12.379Z,71.21
2023-01-26T06:40:40.178Z,71.29
2023-01-26T06:43:08.143Z,70.81
2023-01-26T06:45:37.172Z,71.13
2023-01-26T06:48:04.892Z,70.99
2023-01-26T06:50:33.706Z,70.98
2023-01-26T06:53:04.195Z,71.07
2023-01-26T06:55:44.857Z,70.87
2023-01-26T06:58:31.411Z,70.86
2023-01-26T07:01:19.199Z,70.81
2023-01-26T07:03:51.325Z,70.70
2023-01-26T07:06:19.157Z,70.81
2023-01-26T07:08:47.261Z,70.81
2023-01-26T07:11:22.309Z,70.97
2023-01-26T07:13:56.610Z,70.97
2023-01-26T07:16:33.333Z,70.71
2023-01-26T07:19:03.159Z,70.68
2023-01-26T07:21:30.929Z,70.66
2023-01-26T07:23:58.874Z,70.45
2023-01-26T07:26:26.966Z,70.39
2023-01-26T07:28:55.248Z,70.26
2023-01-26T07:31:23.240Z,70.18
2023-01-26T07:33:53.007Z,70.14
2023-01-26T07:36:20.831Z,70.02
2023-01-26T07:38:48.822Z,70.21
2023-01-26T07:41:20.741Z,70.34
2023-01-26T07:43:50.335Z,70.51
2023-01-26T07:46:20.206Z,70.46
2023-01-26T07:48:50.936Z,70.50
2023-01-26T07:51:18.658Z,70.64
2023-01-26T07:53:49.929Z,70.81
2023-01-26T07:56:21.269Z,70.93
2023-01-26T07:58:52.741Z,70.57
2023-01-26T08:01:23.483Z,70.91
2023-01-26T08:03:52.318Z,70.85
2023-01-26T08:06:20.510Z,71.14
2023-01-26T08:08:53.817Z,71.21
2023-01-26T08:11:24.011Z,71.11
2023-01-26T08:13:52.803Z,71.38
2023-01-26T08:16:20.924Z,71.46
2023-01-26T08:18:48.800Z,71.44
2023-01-26T08:21:20.321Z,71.49
2023-01-26T08:23:51.564Z,71.48
2023-01-26T08:26:20.930Z,71.57
2023-01-26T08:28:49.086Z,71.31
2023-01-26T08:31:20.754Z,71.03
2023-01-26T08:33:50.943Z,70.82
2023-01-26T08:36:21.972Z,70.67
2023-01-26T08:38:51.048Z,70.26
2023-01-26T08:41:18.795Z,70.62
2023-01-26T08:43:46.905Z,70.51
2023-01-26T08:46:21.679Z,70.41
2023-01-26T08:48:49.490Z,70.45
2023-01-26T08:51:19.681Z,70.43
2023-01-26T08:53:48.061Z,70.40
2023-01-26T08:56:15.838Z,70.64
2023-01-26T08:58:46.763Z,70.47
2023-01-26T09:01:15.729Z,70.27
2023-01-26T09:03:45.933Z,70.31
2023-01-26T09:06:14.963Z,70.11
2023-01-26T09:08:45.607Z,70.13
2023-01-26T09:11:13.800Z,70.43
2023-01-26T09:13:52.966Z,70.41
2023-01-26T09:16:20.958Z,70.36
2023-01-26T09:18:53.618Z,70.52
2023-01-26T09:21:21.385Z,70.46
2023-01-26T09:23:49.215Z,70.58
2023-01-26T09:26:17.198Z,70.53
2023-01-26T09:28:45.099Z,70.49
2023-01-26T09:31:13.820Z,70.25
2023-01-26T09:33:44.060Z,70.11
2023-01-26T09:36:15.801Z,70.06
2023-01-26T09:38:44.046Z,69.92
2023-01-26T09:41:30.832Z,69.87
2023-01-26T09:44:04.504Z,69.82
2023-01-26T09:46:41.193Z,69.79
2023-01-26T09:49:13.970Z,69.77
2023-01-26T09:51:45.227Z,69.49
2023-01-26T09:54:17.020Z,69.68
2023-01-26T09:56:46.368Z,69.25
2023-01-26T09:59:17.595Z,69.39
2023-01-26T10:01:51.420Z,69.50
2023-01-26T10:04:30.114Z,69.23
2023-01-26T10:07:01.192Z,68.94
2023-01-26T10:09:56.622Z,68.82
2023-01-26T10:12:35.002Z,69.01
2023-01-26T10:15:08.721Z,68.56
2023-01-26T10:17:44.244Z,68.51
2023-01-26T10:20:15.253Z,68.72
2023-01-26T10:22:46.024Z,68.58
2023-01-26T10:25:29.791Z,68.24
2023-01-26T10:27:58.004Z,68.47
2023-01-26T10:30:26.005Z,68.33
2023-01-26T10:32:59.658Z,68.03
2023-01-26T10:35:30.187Z,67.72
2023-01-26T10:37:58.478Z,67.43
2023-01-26T10:40:26.375Z,67.40
2023-01-26T10:42:58.402Z,67.43
2023-01-26T10:45:31.754Z,67.17
2023-01-26T10:48:15.543Z,67.26
2023-01-26T10:50:44.929Z,67.22
2023-01-26T10:53:23.259Z,67.17
2023-01-26T10:56:09.915Z,67.33
2023-01-26T10:58:40.265Z,67.40
2023-01-26T11:01:17.584Z,67.31
2023-01-26T11:04:05.191Z,66.96
2023-01-26T11:06:46.941Z,66.63
2023-01-26T11:09:14.996Z,66.17
2023-01-26T11:11:57.931Z,65.95
2023-01-26T11:14:28.303Z,65.90
2023-01-26T11:17:22.017Z,65.74
2023-01-26T11:20:10.912Z,65.97
2023-01-26T11:23:05.364Z,65.65
2023-01-26T11:25:37.833Z,65.69
2023-01-26T11:28:15.345Z,66.00
2023-01-26T11:30:57.708Z,65.57
2023-01-26T11:33:30.259Z,65.46
2023-01-26T11:36:03.008Z,65.74
2023-01-26T11:38:41.811Z,65.48
2023-01-26T11:41:17.259Z,65.29
2023-01-26T11:43:45.575Z,65.47
2023-01-26T11:46:42.008Z,65.54
2023-01-26T11:49:26.895Z,65.55
2023-01-26T11:52:16.769Z,65.31
2023-01-26T11:54:47.429Z,65.07
2023-01-26T11:57:17.624Z,65.11
2023-01-26T11:59:51.440Z,65.05
2023-01-26T12:02:21.294Z,65.06
2023-01-26T12:04:55.913Z,65.03
2023-01-26T12:07:28.762Z,65.36
2023-01-26T12:10:03.955Z,65.48
2023-01-26T12:12:38.696Z,65.57
2023-01-26T12:15:18.149Z,65.47
2023-01-26T12:18:06.566Z,65.69
2023-01-26T12:20:40.235Z,65.81
2023-01-26T12:23:16.413Z,65.53
2023-01-26T12:25:57.635Z,65.68
2023-01-26T12:28:37.645Z,65.56
2023-01-26T12:31:24.035Z,65.67
2023-01-26T12:33:53.882Z,65.92
2023-01-26T12:36:42.163Z,65.72
2023-01-26T12:39:13.220Z,66.19
2023-01-26T12:41:53.791Z,66.20
2023-01-26T12:44:25.075Z,66.36
2023-01-26T12:47:04.044Z,66.35
2023-01-26T12:49:36.904Z,66.42
2023-01-26T12:52:07.966Z,66.55
2023-01-26T12:54:44.985Z,66.75
2023-01-26T12:57:15.908Z,66.90
2023-01-26T12:59:48.489Z,67.19
2023-01-26T13:02:16.985Z,67.29
2023-01-26T13:04:48.863Z,67.32
2023-01-26T13:07:29.417Z,67.31
2023-01-26T13:10:19.453Z,67.27
2023-01-26T13:12:56.526Z,67.52
2023-01-26T13:15:27.063Z,67.52
2023-01-26T13:17:56.136Z,67.50
2023-01-26T13:20:44.322Z,67.62
2023-01-26T13:23:37.571Z,67.53
2023-01-26T13:26:13.407Z,67.42
2023-01-26T13:28:41.808Z,67.78
2023-01-26T13:31:10.282Z,67.66
2023-01-26T13:33:38.896Z,67.99
2023-01-26T13:36:17.842Z,68.16
2023-01-26T13:38:54.945Z,67.92
2023-01-26T13:41:22.785Z,68.09
2023-01-26T13:43:56.165Z,68.15
2023-01-26T13:46:44.534Z,67.94
2023-01-26T13:49:26.389Z,68.08
2023-01-26T13:51:54.228Z,68.05
2023-01-26T13:54:22.939Z,67.82
2023-01-26T13:57:03.005Z,68.24
2023-01-26T13:59:34.397Z,68.19
2023-01-26T14:02:11.220Z,68.04
2023-01-26T14:04:50.784Z,67.83
2023-01-26T14:07:20.417Z,67.92
2023-01-26T14:09:50.406Z,67.81
2023-01-26T14:12:41.187Z,67.85
2023-01-26T14:15:24.402Z,67.71
2023-01-26T14:18:03.355Z,67.74
2023-01-26T14:20:42.073Z,67.99
2023-01-26T14:23:19.578Z,67.97
2023-01-26T14:25:56.252Z,67.97
2023-01-26T14:28:26.153Z,68.38
2023-01-26T14:31:06.235Z,69.18
2023-01-26T14:33:39.651Z,68.35
2023-01-26T14:36:10.443Z,68.05
2023-01-26T14:38:45.937Z,67.90
2023-01-26T14:41:22.863Z,67.50
2023-01-26T14:43:58.556Z,67.60
2023-01-26T14:46:30.184Z,67.69
2023-01-26T14:49:14.820Z,67.48
2023-01-26T14:51:46.348Z,67.64
2023-01-26T14:54:31.398Z,67.88
2023-01-26T14:57:00.238Z,68.08
2023-01-26T14:59:36.553Z,68.12
2023-01-26T15:02:18.177Z,68.26
2023-01-26T15:04:54.842Z,68.08
2023-01-26T15:07:29.687Z,68.31
2023-01-26T15:09:58.019Z,68.18
2023-01-26T15:12:25.998Z,68.23
2023-01-26T15:15:01.826Z,68.30
2023-01-26T15:17:40.850Z,68.33
2023-01-26T15:20:16.368Z,68.49
2023-01-26T15:22:49.663Z,68.69
2023-01-26T15:25:18.758Z,68.27
2023-01-26T15:27:55.193Z,68.51
2023-01-26T15:30:50.163Z,68.67
2023-01-26T15:33:38.686Z,68.60
2023-01-26T15:36:20.915Z,68.77
2023-01-26T15:38:59.243Z,68.67
2023-01-26T15:41:30.239Z,68.96
2023-01-26T15:44:01.106Z,69.04
2023-01-26T15:46:28.963Z,68.92
2023-01-26T15:48:58.145Z,68.96
2023-01-26T15:51:29.631Z,68.96
2023-01-26T15:53:57.550Z,68.99
2023-01-26T15:56:28.659Z,69.17
2023-01-26T15:58:57.334Z,69.13
2023-01-26T16:01:25.252Z,69.06
2023-01-26T16:03:54.472Z,69.28
2023-01-26T16:06:24.239Z,69.30
2023-01-26T16:08:54.464Z,69.69
2023-01-26T16:11:25.403Z,69.40
2023-01-26T16:14:04.278Z,69.34
2023-01-26T16:16:34.368Z,69.26
2023-01-26T16:19:06.421Z,69.47
2023-01-26T16:22:28.563Z,69.63
2023-01-26T16:25:34.336Z,69.46
2023-01-26T16:31:03.356Z,70.00
2023-01-26T16:33:36.762Z,70.20
2023-01-26T16:36:19.705Z,70.04
2023-01-26T16:38:55.812Z,70.10
2023-01-26T16:41:29.827Z,70.26
2023-01-26T16:43:59.562Z,70.23
2023-01-26T16:46:36.363Z,70.18
2023-01-26T16:49:13.476Z,70.02
2023-01-26T16:51:48.014Z,70.28
2023-01-26T16:54:28.110Z,70.33
2023-01-26T16:57:19.903Z,70.45
2023-01-26T17:00:00.926Z,70.50
2023-01-26T17:02:40.820Z,70.63
2023-01-26T17:05:19.293Z,70.64
2023-01-26T17:07:56.114Z,70.71
2023-01-26T17:11:02.672Z,70.83
2023-01-26T17:13:44.368Z,71.22
2023-01-26T17:16:26.412Z,71.30
2023-01-26T17:19:09.115Z,71.36
2023-01-26T17:21:38.980Z,71.45
2023-01-26T17:24:18.959Z,71.59
2023-01-26T17:26:59.792Z,71.68
2023-01-26T17:29:44.576Z,71.76
2023-01-26T17:32:19.002Z,71.92
2023-01-26T17:35:06.798Z,72.02
2023-01-26T17:37:41.919Z,72.09
2023-01-26T17:40:17.944Z,72.42
2023-01-26T17:42:54.181Z,72.33
2023-01-26T17:45:25.870Z,72.34
2023-01-26T17:47:54.945Z,72.14
2023-01-26T17:50:58.966Z,72.51
2023-01-26T17:53:28.927Z,72.29
2023-01-26T17:59:20.355Z,72.45
2023-01-26T18:02:05.517Z,72.56
2023-01-26T18:04:39.198Z,72.51
2023-01-26T18:07:37.479Z,72.64
2023-01-26T18:10:22.655Z,72.73
2023-01-26T18:12:58.179Z,72.67
2023-01-26T18:15:41.195Z,72.69
2023-01-26T18:18:16.479Z,72.65
2023-01-26T18:20:47.816Z,72.92
2023-01-26T18:23:30.609Z,73.14
2023-01-26T18:28:58.111Z,73.32
2023-01-26T18:31:50.563Z,73.20
2023-01-26T18:34:24.763Z,73.20
2023-01-26T18:37:03.549Z,72.99
2023-01-26T18:39:38.873Z,73.08
2023-01-26T18:42:21.000Z,73.05
2023-01-26T18:45:01.539Z,73.11
2023-01-26T18:47:33.431Z,73.29
2023-01-26T18:50:23.572Z,73.03
2023-01-26T18:53:00.241Z,73.15
2023-01-26T18:55:35.210Z,73.13
2023-01-26T18:58:18.975Z,73.15
2023-01-26T19:01:21.634Z,73.28
2023-01-26T19:04:09.153Z,73.37
2023-01-26T19:06:44.878Z,73.36
2023-01-26T19:09:36.132Z,73.47
2023-01-26T19:12:11.181Z,73.57
2023-01-26T19:14:57.475Z,73.57
2023-01-26T19:17:27.294Z,73.59
2023-01-26T19:22:55.524Z,73.79
2023-01-26T19:25:26.895Z,73.75
2023-01-26T19:28:01.901Z,74.07
2023-01-26T19:30:41.117Z,73.99
2023-01-26T19:36:19.624Z,74.35
2023-01-26T19:41:48.406Z,74.04
2023-01-26T19:44:21.612Z,74.37
2023-01-26T19:47:05.793Z,74.44
2023-01-26T19:52:28.481Z,74.64
2023-01-26T19:55:04.833Z,74.74
2023-01-26T19:57:50.211Z,74.66
2023-01-26T20:00:29.078Z,74.68
2023-01-26T20:02:58.893Z,74.65
2023-01-26T20:05:48.886Z,74.54
2023-01-26T20:08:26.620Z,74.58
2023-01-26T20:11:05.006Z,74.61
2023-01-26T20:13:43.776Z,74.43
2023-01-26T20:16:26.211Z,74.59
2023-01-26T20:19:33.206Z,74.67
2023-01-26T20:22:20.849Z,74.73
2023-01-26T20:25:15.862Z,74.65
2023-01-26T20:28:19.855Z,74.69
2023-01-26T20:30:58.645Z,74.69
2023-01-26T20:33:33.467Z,74.89
2023-01-26T20:36:19.167Z,74.66
2023-01-26T20:38:51.714Z,74.98
2023-01-26T20:41:36.949Z,75.30
2023-01-26T20:44:14.479Z,75.07
2023-01-26T20:46:56.921Z,75.07
2023-01-26T20:49:31.383Z,75.30
2023-01-26T20:52:02.420Z,75.18
2023-01-26T20:54:35.222Z,75.24
2023-01-26T20:57:06.781Z,75.41
2023-01-26T20:59:40.002Z,75.41
2023-01-26T21:02:15.644Z,75.44
2023-01-26T21:04:51.985Z,75.34
2023-01-26T21:07:25.960Z,75.19
2023-01-26T21:10:00.426Z,75.20
2023-01-26T21:12:37.495Z,75.34
2023-01-26T21:15:31.568Z,75.43
2023-01-26T21:18:09.719Z,75.50
2023-01-26T21:20:46.113Z,75.76
2023-01-26T21:23:26.588Z,75.84
2023-01-26T21:26:09.547Z,75.81
2023-01-26T21:29:10.513Z,75.80
2023-01-26T21:31:44.029Z,75.89
2023-01-26T21:34:25.925Z,75.95
2023-01-26T21:37:15.032Z,76.09
2023-01-26T21:39:56.617Z,76.17
2023-01-26T21:42:28.175Z,76.75
2023-01-26T21:45:32.777Z,76.81
2023-01-26T21:48:37.408Z,77.24
2023-01-26T21:51:25.839Z,77.43
2023-01-26T21:57:05.202Z,77.64
2023-01-26T22:02:31.244Z,77.91
2023-01-26T22:05:03.675Z,77.95
2023-01-26T22:10:28.639Z,78.52
2023-01-26T22:13:50.941Z,78.69
2023-01-26T22:17:40.544Z,78.74
2023-01-26T22:21:10.725Z,78.79
2023-01-26T22:25:02.430Z,79.35
2023-01-26T22:28:32.630Z,79.32
2023-01-26T22:32:25.063Z,79.33
2023-01-26T22:36:43.387Z,79.72
2023-01-26T22:40:33.513Z,79.52
2023-01-26T22:44:23.043Z,79.88
2023-01-26T22:48:12.293Z,80.08
2023-01-26T22:51:29.706Z,80.12
2023-01-26T22:55:00.272Z,80.04
2023-01-26T22:58:33.150Z,80.67
2023-01-26T23:02:03.398Z,80.56
2023-01-26T23:05:32.374Z,80.53
2023-01-26T23:09:02.660Z,80.62
2023-01-26T23:12:31.479Z,80.85
2023-01-26T23:15:51.404Z,80.79
2023-01-26T23:19:20.214Z,81.08
2023-01-26T23:22:48.741Z,80.93
2023-01-26T23:26:17.958Z,81.34
2023-01-26T23:29:45.012Z,81.60
2023-01-26T23:33:12.513Z,81.82
2023-01-26T23:36:41.680Z,82.16
2023-01-26T23:40:01.358Z,82.12
2023-01-26T23:43:17.128Z,82.39
2023-01-26T23:46:46.243Z,82.44
2023-01-26T23:50:13.338Z,82.57
2023-01-26T23:53:34.126Z,82.68
2023-01-26T23:56:53.623Z,82.43
